WEATHER DATA

YESTERDAY
Time Temp. Dewp. Hum. Wind dir Wind speed Wind gust Bar. 1h Prec. 24h Prec.
00:03 6.6 2.1 73 223 4.2 7.2 1021.5 0.0000 0.0000
00:14 6.5 2 73 223 4.2 6.4 1021.5 0.0000 0.0000
00:23 6.4 2.1 74 222 3.6 5.8 1021.5 0.0000 0.0000
00:33 6.4 2.1 74 222 3.3 5.6 1021.5 0.0000 0.0000
00:43 6.3 2 74 229 2.8 4.4 1021.5 0.0000 0.0000
00:54 6.2 1.9 74 221 2.8 4.7 1021.5 0.0000 0.0000
01:04 6.2 1.9 74 227 2.8 4.4 1021.6 0.0000 0.0000
01:13 6.1 1.8 74 233 3.1 6.1 1021.4 0.0000 0.0000
01:24 6 1.9 75 221 2.8 4.7 1021.5 0.0000 0.0000
01:34 5.9 2 76 222 3.1 5.6 1021.4 0.0000 0.0000
01:44 5.8 2.1 77 221 3.1 5.6 1021.4 0.0000 0.0000
01:54 5.7 2 77 221 3.6 6.4 1021.5 0.0000 0.0000
02:04 5.6 1.9 77 221 3.1 5 1021.5 0.0000 0.0000
02:14 5.5 2 78 222 2.8 4.7 1021.5 0.0000 0.0000
02:24 5.4 1.7 77 222 2.8 4.4 1021.5 0.0000 0.0000
02:34 5.4 1.7 77 267 2.8 4.7 1021.5 0.0000 0.0000
02:45 5.3 1.6 77 246 2.5 3.3 1021.4 0.0000 0.0000
02:54 5.1 1.4 77 225 2.8 4.2 1021.5 0.0000 0.0000
03:04 5 1.3 77 232 2.5 3.6 1021.6 0.0000 0.0000
03:15 4.8 1.1 77 282 2.8 4.4 1021.7 0.0000 0.0000
03:25 4.7 1.2 78 2.5 4.4 1021.8 0.0000 0.0000
03:35 4.6 1.1 78 227 2.5 3.6 1021.8 0.0000 0.0000
03:45 4.4 0.9 78 239 2.5 4.4 1021.8 0.0000 0.0000
03:55 4.2 0.7 78 245 2.5 3.6 1021.8 0.0000 0.0000
04:05 4.1 0.6 78 264 2.5 3.6 1021.8 0.0000 0.0000
04:15 3.9 0.4 78 219 2.8 4.2 1022 0.0000 0.0000
04:26 3.7 0.2 78 216 2.8 4.4 1022.2 0.0000 0.0000
04:35 3.6 0.1 78 209 2.8 4.7 1022.3 0.0000 0.0000
04:45 3.4 0.1 79 203 2.8 4.4 1022.3 0.0000 0.0000
04:55 3.3 0 79 217 3.1 4.7 1022.5 0.0000 0.0000
05:06 3.2 -0.1 79 210 3.1 4.4 1022.5 0.0000 0.0000
05:20 2.9 -0.3 79 211 3.1 4.2 1022.6 0.0000 0.0000
05:30 2.8 -0.4 79 219 3.1 4.4 1022.8 0.0000 0.0000
05:40 2.7 -0.4 80 213 3.1 4.2 1022.9 0.0000 0.0000
05:50 2.6 -0.4 80 225 3.1 4.2 1022.8 0.0000 0.0000
06:00 2.4 -0.6 80 212 3.1 4.4 1022.9 0.0000 0.0000
06:11 2.3 -0.5 81 214 3.3 4.7 1023 0.0000 0.0000
06:20 2.3 -0.5 81 205 3.1 4.4 1023.3 0.0000 0.0000
06:30 2.3 -0.5 81 210 3.1 4.7 1023.6 0.0000 0.0000
06:41 2.3 -0.5 81 210 3.1 4.4 1023.8 0.0000 0.0000
06:51 2.3 -0.4 82 213 3.1 4.7 1023.7 0.0000 0.0000
07:01 2.4 -0.3 82 211 3.1 4.4 1023.9 0.0000 0.0000
07:10 2.5 -0.2 82 211 3.3 4.7 1024 0.0000 0.0000
07:21 2.6 -0.1 82 207 3.3 5 1024.2 0.0000 0.0000
07:31 2.9 0.3 83 211 3.3 4.7 1024.3 0.0000 0.0000
07:41 3.1 0.5 83 211 3.6 5.8 1024.5 0.0000 0.0000
07:52 3.5 1.1 84 207 2.8 5 1024.7 0.0000 0.0000
08:01 3.8 1.3 84 201 2.5 4.7 1024.8 0.0000 0.0000
08:11 4.4 1.9 84 206 2.5 4.7 1025.1 0.0000 0.0000
08:21 5 2.5 84 201 1.9 4.2 1025.1 0.0000 0.0000
08:32 5.6 2.9 83 198 1.9 3.6 1025.1 0.0000 0.0000
08:42 6.2 3.2 81 197 2.5 3.6 1025.2 0.0000 0.0000
08:51 6.7 3.1 78 202 1.9 3.3 1025.3 0.0000 0.0000
09:02 7.2 3.1 75 196 1.9 3.6 1025.3 0.0000 0.0000
09:12 7.7 2.8 71 196 1.9 3.6 1025.2 0.0000 0.0000
09:22 8.2 3.1 70 204 1.9 3.6 1025.2 0.0000 0.0000
09:32 8.5 2.9 68 220 1.7 3.6 1025.4 0.0000 0.0000
09:42 8.9 2.9 66 225 1.9 3.3 1025.5 0.0000 0.0000
09:52 9.3 3.3 66 217 2.5 4.4 1025.5 0.0000 0.0000
10:02 9.6 3.1 64 210 1.9 4.2 1025.5 0.0000 0.0000
10:13 9.9 3 62 212 2.5 4.4 1025.5 0.0000 0.0000
10:23 10.3 2.9 60 209 1.9 4.7 1025.5 0.0000 0.0000
10:32 10.6 2.7 58 229 1.9 5 1025.4 0.0000 0.0000
10:42 11 2.8 57 223 1.9 4.2 1025.5 0.0000 0.0000
10:53 11.4 2.7 55 215 2.8 4.4 1025.4 0.0000 0.0000
11:03 11.7 3 55 225 1.7 4.4 1025.4 0.0000 0.0000
11:13 12.2 3.4 55 260 1.7 5 1025.3 0.0000 0.0000
11:23 12.4 3.4 54 255 1.7 5.8 1025.3 0.0000 0.0000
11:33 12.9 3.8 54 260 1.7 5 1025.2 0.0000 0.0000
11:43 13.2 3.8 53 270 1.9 5.6 1025.3 0.0000 0.0000
11:53 13.6 4.2 53 250 2.5 5.6 1025.1 0.0000 0.0000
12:04 13.7 4 52 252 1.9 5 1025 0.0000 0.0000
12:13 14 4.3 52 252 2.5 5.6 1025 0.0000 0.0000
12:23 14.2 4.2 51 251 2.5 7.8 1024.8 0.0000 0.0000
12:33 14.5 4.5 51 249 2.8 6.4 1024.7 0.0000 0.0000
12:44 14.9 4.9 51 258 1.9 5 1024.6 0.0000 0.0000
12:53 15.1 4.8 50 260 1.9 6.7 1024.5 0.0000 0.0000
13:03 15.2 4.9 50 244 2.8 6.1 1024.5 0.0000 0.0000
13:14 15.2 4.6 49 252 2.5 5 1024.5 0.0000 0.0000
13:24 15.5 4.8 49 245 3.1 5.6 1024.3 0.0000 0.0000
13:34 15.8 5.1 49 249 2.8 5.6 1024.2 0.0000 0.0000
13:44 15.9 4.9 48 270 2.5 8.1 1024.2 0.0000 0.0000
13:54 16.1 5.1 48 251 2.8 6.1 1024.2 0.0000 0.0000
14:04 16.2 5.2 48 249 2.8 6.7 1024.2 0.0000 0.0000
14:14 16.6 5.6 48 249 2.8 8.1 1024.1 0.0000 0.0000
14:25 16.8 5.4 47 246 3.1 7.5 1024.1 0.0000 0.0000
14:35 16.8 5.4 47 244 3.3 7.5 1024 0.0000 0.0000
14:44 16.9 5.2 46 249 3.1 8.1 1024.1 0.0000 0.0000
14:54 17.1 5.4 46 250 3.1 5.8 1024.2 0.0000 0.0000
15:05 17.2 5.8 47 249 2.8 5.8 1024.1 0.0000 0.0000
15:15 17.4 5.7 46 248 3.1 7.5 1024.2 0.0000 0.0000
15:25 17.4 5.7 46 250 3.3 7.8 1024.2 0.0000 0.0000
15:35 17.9 6.1 46 244 3.3 7.5 1024.2 0.0000 0.0000
15:45 17.7 5.9 46 254 2.8 7.2 1024.3 0.0000 0.0000
15:55 17.7 5.9 46 249 2.8 6.1 1024.2 0.0000 0.0000
16:05 17.8 5.7 45 254 2.8 6.4 1024.2 0.0000 0.0000
16:16 17.7 5.9 46 258 2.8 5.6 1024.2 0.0000 0.0000
16:25 17.4 5.7 46 250 2.5 6.4 1024.2 0.0000 0.0000
16:35 17.1 5.7 47 255 2.5 5.6 1024.2 0.0000 0.0000
16:46 16.8 6 49 262 1.9 5.6 1024.2 0.0000 0.0000
16:56 16.2 5.8 50 275 2.5 6.7 1024.4 0.0000 0.0000
17:06 16.3 6.2 51 262 1.9 5.6 1024.6 0.0000 0.0000
17:15 16.1 6.3 52 270 1.7 5 1024.8 0.0000 0.0000
17:26 15.6 5.8 52 270 1.7 3.6 1025 0.0000 0.0000
17:36 14.7 5.5 54 235 1.9 3.6 1025 0.0000 0.0000
17:46 14.1 5.5 56 213 2.8 5 1025.1 0.0000 0.0000
17:56 13.8 5.4 57 213 2.8 4.4 1025.1 0.0000 0.0000
18:06 13.5 5.4 58 216 2.8 4.2 1025.1 0.0000 0.0000
18:16 13.2 5.4 59 211 2.8 4.2 1025.2 0.0000 0.0000
18:26 13 5.4 60 212 2.8 4.2 1025.2 0.0000 0.0000
18:37 12.9 5.6 61 215 2.5 4.2 1025.4 0.0000 0.0000
18:46 12.6 5.3 61 211 2.8 4.4 1025.5 0.0000 0.0000
18:56 12.3 5.2 62 213 2.5 3.6 1025.7 0.0000 0.0000
19:07 12.1 5 62 212 2.5 4.2 1025.8 0.0000 0.0000
19:17 11.9 5.1 63 209 2.8 3.6 1025.9 0.0000 0.0000
19:27 11.6 4.8 63 212 2.8 4.2 1026 0.0000 0.0000
19:36 11.4 4.8 64 206 2.8 3.6 1026 0.0000 0.0000
19:47 11.2 4.9 65 211 2.8 4.2 1026 0.0000 0.0000
19:57 10.9 4.6 65 211 3.1 5.8 1026.1 0.0000 0.0000
20:07 10.7 4.6 66 211 2.8 4.4 1026.4 0.0000 0.0000
20:17 10.5 4.4 66 210 2.8 3.6 1026.4 0.0000 0.0000
20:27 10.3 4.4 67 210 2.8 4.4 1026.4 0.0000 0.0000
20:37 10.2 4.4 67 213 3.1 4.7 1026.4 0.0000 0.0000
20:47 10 4.4 68 211 3.1 4.7 1026.5 0.0000 0.0000
20:58 9.7 4.1 68 216 3.1 5 1026.7 0.0000 0.0000
21:08 9.6 4.2 69 209 3.3 4.7 1026.8 0.0000 0.0000
21:17 9.4 4 69 209 3.6 5.6 1026.9 0.0000 0.0000
21:28 9.3 4.1 70 209 3.6 5.6 1027 0.0000 0.0000
21:38 9.2 4 70 207 3.3 4.7 1027.1 0.0000 0.0000
21:48 9.1 3.9 70 209 3.1 5 1027.1 0.0000 0.0000
21:58 8.9 3.9 71 209 4.2 5.8 1027.2 0.0000 0.0000
22:08 8.7 3.7 71 207 3.3 5.6 1027.2 0.0000 0.0000
22:18 8.5 3.6 71 209 3.3 5.6 1027.2 0.0000 0.0000
22:28 8.3 3.6 72 208 3.3 5 1027.3 0.0000 0.0000
22:38 8.2 3.5 72 208 3.3 4.7 1027.2 0.0000 0.0000
22:49 8 3.3 72 211 3.3 6.1 1027.3 0.0000 0.0000
22:58 7.8 3.1 72 209 3.3 4.7 1027.4 0.0000 0.0000
23:08 7.6 3.1 73 210 3.3 4.7 1027.4 0.0000 0.0000
23:19 7.5 3 73 209 3.3 4.7 1027.3 0.0000 0.0000
23:29 7.3 3 74 210 3.1 4.4 1027.3 0.0000 0.0000
23:39 7.2 2.9 74 208 3.3 5 1027.3 0.0000 0.0000
23:49 7.1 2.8 74 207 3.3 7.2 1027.2 0.0000 0.0000

DAY STATISTIC

2021-04-12
TEMPERATURE
AVERAGE
9.5
HIGH
17.9
15:35
LOW
2.3
06:11
PRESSURE
AVERAGE
1024.4
HIGH
1027.4
22:58
LOW
1021.4
01:13
DEWPOINT
AVERAGE
3.2
HIGH
6.3
17:15
LOW
-0.6
06:00
HUMIDITY
AVERAGE
66
HIGH
84
07:52
LOW
45
16:05
WIND SPEED
AVERAGE
2.8
HIGH
4.2
00:03
WIND GUST
AVERAGE
5.0
HIGH
8.1
13:44
WIND DIRECTION
PREVAILING
SW
67.6%
N
0.0
NE
0.0
E
0.0
SE
0.0
S
6.3
SW
67.6
W
25.4
NW
0.0
PRECIPITATION
RAIN HOUR
0.0
RAIN DAY
0.0
TEMPERATURE (°C)
LOW
2.3
HIGH
17.9
AVERAGE
9.5
PRESSURE (hpa)
LOW
1021.4
HIGH
1027.4
AVERAGE
1024.4
DEVICE